createdAt,value
2022-08-16T00:02:31.993Z,17.00
2022-08-16T00:05:00.304Z,16.77
2022-08-16T00:07:29.142Z,18.25
2022-08-16T00:09:59.804Z,16.88
2022-08-16T00:12:31.408Z,19.55
2022-08-16T00:15:02.445Z,18.05
2022-08-16T00:17:30.426Z,14.95
2022-08-16T00:20:24.178Z,15.90
2022-08-16T00:22:53.824Z,17.83
2022-08-16T00:26:33.626Z,16.23
2022-08-16T00:28:14.801Z,16.88
2022-08-16T00:30:43.222Z,15.00
2022-08-16T00:33:13.235Z,16.25
2022-08-16T00:35:41.505Z,18.05
2022-08-16T00:38:10.037Z,15.20
2022-08-16T00:41:01.647Z,16.05
2022-08-16T00:43:42.442Z,16.27
2022-08-16T00:46:22.333Z,15.95
2022-08-16T00:49:02.811Z,15.15
2022-08-16T00:51:31.686Z,15.32
2022-08-16T00:54:01.210Z,16.50
2022-08-16T00:56:57.131Z,17.35
2022-08-16T00:59:25.917Z,15.95
2022-08-16T01:01:54.712Z,14.57
2022-08-16T01:04:29.866Z,17.15
2022-08-16T01:07:02.134Z,18.80
2022-08-16T01:09:33.242Z,16.20
2022-08-16T01:12:08.672Z,19.42
2022-08-16T01:14:44.434Z,16.83
2022-08-16T01:17:17.392Z,18.02
2022-08-16T01:19:49.417Z,16.63
2022-08-16T01:22:49.884Z,17.27
2022-08-16T01:25:17.902Z,16.75
2022-08-16T01:27:53.429Z,20.55
2022-08-16T01:30:26.554Z,16.33
2022-08-16T01:33:02.470Z,18.63
2022-08-16T01:35:36.565Z,17.15
2022-08-16T01:38:19.395Z,17.33
2022-08-16T01:40:51.042Z,18.85
2022-08-16T01:43:19.322Z,18.25
2022-08-16T01:45:47.709Z,22.33
2022-08-16T01:48:28.856Z,17.58
2022-08-16T01:51:08.907Z,15.82
2022-08-16T01:53:44.428Z,17.15
2022-08-16T01:56:24.946Z,21.17
2022-08-16T01:58:54.989Z,17.80
2022-08-16T02:01:26.212Z,18.15
2022-08-16T02:03:58.674Z,15.88
2022-08-16T02:06:46.699Z,19.83
2022-08-16T02:09:18.114Z,18.13
2022-08-16T02:11:52.977Z,18.98
2022-08-16T02:14:26.277Z,20.33
2022-08-16T02:16:56.255Z,18.20
2022-08-16T02:19:25.269Z,16.63
2022-08-16T02:22:33.592Z,17.77
2022-08-16T02:25:05.442Z,18.40
2022-08-16T02:27:35.317Z,15.98
2022-08-16T02:30:08.073Z,17.42
2022-08-16T02:32:51.208Z,16.33
2022-08-16T02:35:26.394Z,15.20
2022-08-16T02:37:56.337Z,19.30
2022-08-16T02:40:30.198Z,18.23
2022-08-16T02:43:00.793Z,17.98
2022-08-16T02:45:30.862Z,22.15
2022-08-16T02:48:29.024Z,20.52
2022-08-16T02:50:53.707Z,15.95
2022-08-16T02:53:23.829Z,15.55
2022-08-16T02:55:52.562Z,16.35
2022-08-16T02:58:25.229Z,19.80
2022-08-16T03:00:53.898Z,20.53
2022-08-16T03:03:25.027Z,21.13
2022-08-16T03:05:53.538Z,19.40
2022-08-16T03:08:50.533Z,23.15
2022-08-16T03:11:16.292Z,19.30
2022-08-16T03:13:51.249Z,20.08
2022-08-16T03:16:37.878Z,19.52
2022-08-16T03:19:07.361Z,20.58
2022-08-16T03:21:38.289Z,23.55
2022-08-16T03:24:29.445Z,18.73
2022-08-16T03:26:57.953Z,16.85
2022-08-16T03:29:30.392Z,18.60
2022-08-16T03:31:59.608Z,19.67
2022-08-16T03:34:30.869Z,19.10
2022-08-16T03:37:00.182Z,17.77
2022-08-16T03:39:28.732Z,19.52
2022-08-16T03:41:59.684Z,17.58
2022-08-16T03:44:43.826Z,19.20
2022-08-16T03:47:19.023Z,16.55
2022-08-16T03:49:51.521Z,16.13
2022-08-16T03:52:20.596Z,18.40
2022-08-16T03:54:58.203Z,26.77
2022-08-16T03:57:31.632Z,18.40
2022-08-16T04:00:35.125Z,19.20
2022-08-16T04:03:07.666Z,20.70
2022-08-16T04:05:38.143Z,17.70
2022-08-16T04:08:23.774Z,21.73
2022-08-16T04:10:54.859Z,17.15
2022-08-16T04:14:00.680Z,16.85
2022-08-16T04:16:26.142Z,18.70
2022-08-16T04:19:02.808Z,18.13
2022-08-16T04:21:33.582Z,20.42
2022-08-16T04:24:03.036Z,16.02
2022-08-16T04:26:32.647Z,18.73
2022-08-16T04:29:16.892Z,16.67
2022-08-16T04:31:55.725Z,16.13
2022-08-16T04:34:27.086Z,18.58
2022-08-16T04:36:55.145Z,15.35
2022-08-16T04:39:36.516Z,15.40
2022-08-16T04:42:13.379Z,15.38
2022-08-16T04:44:54.066Z,19.45
2022-08-16T04:47:33.424Z,14.75
2022-08-16T04:50:05.905Z,14.95
2022-08-16T04:52:36.320Z,17.27
2022-08-16T04:55:07.556Z,16.02
2022-08-16T04:57:36.901Z,16.90
2022-08-16T05:00:31.932Z,15.60
2022-08-16T05:02:58.866Z,16.52
2022-08-16T05:05:33.042Z,21.98
2022-08-16T05:11:00.274Z,15.75
2022-08-16T05:13:41.267Z,17.48
2022-08-16T05:16:11.807Z,16.98
2022-08-16T05:18:41.473Z,18.10
2022-08-16T05:21:12.568Z,17.55
2022-08-16T05:23:41.100Z,17.90
2022-08-16T05:26:19.987Z,21.88
2022-08-16T05:28:55.305Z,20.48
2022-08-16T05:31:24.299Z,20.15
2022-08-16T05:34:00.219Z,26.05
2022-08-16T05:36:33.837Z,27.10
2022-08-16T05:39:03.758Z,23.67
2022-08-16T05:41:31.773Z,22.10
2022-08-16T05:44:05.276Z,20.95
2022-08-16T05:49:09.024Z,17.88
2022-08-16T05:51:40.075Z,16.75
2022-08-16T05:54:11.206Z,16.67
2022-08-16T05:56:40.238Z,14.95
2022-08-16T05:59:11.532Z,17.25
2022-08-16T06:01:40.482Z,14.75
2022-08-16T06:04:13.434Z,18.60
2022-08-16T06:06:58.906Z,17.70
2022-08-16T06:09:42.878Z,15.45
2022-08-16T06:12:27.362Z,16.45
2022-08-16T06:14:59.338Z,16.90
2022-08-16T06:17:41.019Z,18.40
2022-08-16T06:20:23.198Z,19.00
2022-08-16T06:22:58.708Z,18.27
2022-08-16T06:25:36.159Z,16.15
2022-08-16T06:28:09.403Z,18.08
2022-08-16T06:30:43.498Z,19.45
2022-08-16T06:33:12.781Z,15.95
2022-08-16T06:35:42.305Z,16.27
2022-08-16T06:38:34.044Z,18.38
2022-08-16T06:40:58.953Z,14.40
2022-08-16T06:43:27.331Z,14.30
2022-08-16T06:45:56.181Z,15.05
2022-08-16T06:48:32.466Z,15.02
2022-08-16T06:51:03.738Z,14.10
2022-08-16T06:53:35.538Z,13.98
2022-08-16T06:56:14.176Z,17.20
2022-08-16T06:58:52.279Z,17.65
2022-08-16T07:01:34.422Z,16.23
2022-08-16T07:04:11.849Z,15.38
2022-08-16T07:06:42.991Z,16.15
2022-08-16T07:09:12.190Z,15.82
2022-08-16T07:11:45.672Z,16.50
2022-08-16T07:14:24.165Z,15.23
2022-08-16T07:16:53.771Z,14.18
2022-08-16T07:19:21.857Z,15.27
2022-08-16T07:22:36.562Z,18.20
2022-08-16T07:24:59.234Z,16.00
2022-08-16T07:27:27.418Z,18.45
2022-08-16T07:29:56.354Z,15.23
2022-08-16T07:32:29.529Z,13.93
2022-08-16T07:34:59.731Z,12.75
2022-08-16T07:37:29.130Z,12.05
2022-08-16T07:39:57.801Z,15.63
2022-08-16T07:42:34.995Z,14.07
2022-08-16T07:45:14.105Z,12.93
2022-08-16T07:47:45.596Z,13.85
2022-08-16T07:50:57.137Z,12.73
2022-08-16T07:53:08.942Z,14.63
2022-08-16T07:55:47.709Z,14.18
2022-08-16T07:58:18.483Z,23.50
2022-08-16T08:01:10.054Z,14.30
2022-08-16T08:03:42.529Z,15.35
2022-08-16T08:06:13.554Z,12.48
2022-08-16T08:08:51.617Z,13.93
2022-08-16T08:11:23.633Z,14.55
2022-08-16T08:13:53.601Z,18.80
2022-08-16T08:16:30.520Z,12.23
2022-08-16T08:19:01.070Z,12.48
2022-08-16T08:22:01.519Z,10.93
2022-08-16T08:24:21.840Z,10.73
2022-08-16T08:26:50.629Z,10.90
2022-08-16T08:29:22.628Z,11.00
2022-08-16T08:31:53.658Z,9.98
2022-08-16T08:34:23.106Z,11.27
2022-08-16T08:36:54.559Z,11.48
2022-08-16T08:39:24.468Z,11.73
2022-08-16T08:41:53.624Z,12.38
2022-08-16T08:44:29.883Z,13.85
2022-08-16T08:47:01.799Z,13.25
2022-08-16T08:49:46.500Z,10.32
2022-08-16T08:52:34.684Z,11.75
2022-08-16T08:55:10.509Z,12.52
2022-08-16T08:57:40.634Z,12.48
2022-08-16T09:00:13.714Z,13.95
2022-08-16T09:02:51.746Z,12.55
2022-08-16T09:05:22.395Z,12.73
2022-08-16T09:08:00.768Z,14.55
2022-08-16T09:10:32.592Z,13.52
2022-08-16T09:13:02.421Z,13.52
2022-08-16T09:15:33.218Z,12.48
2022-08-16T09:18:27.057Z,15.05
2022-08-16T09:20:59.007Z,17.00
2022-08-16T09:23:28.830Z,14.45
2022-08-16T09:25:58.415Z,13.93
2022-08-16T09:29:14.043Z,11.82
2022-08-16T09:31:16.074Z,14.48
2022-08-16T09:33:45.302Z,12.93
2022-08-16T09:36:32.327Z,10.07
2022-08-16T09:39:03.434Z,11.45
2022-08-16T09:41:33.747Z,11.38
2022-08-16T09:45:09.198Z,9.85
2022-08-16T09:46:54.859Z,11.18
2022-08-16T09:49:26.406Z,12.20
2022-08-16T09:52:06.302Z,9.98
2022-08-16T09:54:44.580Z,13.77
2022-08-16T09:57:14.969Z,9.80
2022-08-16T09:59:43.551Z,10.77
2022-08-16T10:02:25.997Z,11.68
2022-08-16T10:04:57.213Z,9.70
2022-08-16T10:07:26.390Z,10.45
2022-08-16T10:10:12.906Z,10.18
2022-08-16T10:13:06.523Z,9.75
2022-08-16T10:15:37.143Z,9.68
2022-08-16T10:18:46.053Z,10.80
2022-08-16T10:20:56.366Z,10.38
2022-08-16T10:23:26.442Z,9.15
2022-08-16T10:27:21.945Z,9.82
2022-08-16T10:28:46.230Z,12.02
2022-08-16T10:31:43.633Z,9.95
2022-08-16T10:34:31.872Z,13.60
2022-08-16T10:36:55.110Z,10.40
2022-08-16T10:39:23.266Z,10.95
2022-08-16T10:41:52.470Z,9.05
2022-08-16T10:44:21.886Z,9.00
2022-08-16T10:46:50.372Z,9.43
2022-08-16T10:49:18.513Z,9.63
2022-08-16T10:52:03.059Z,11.02
2022-08-16T10:54:58.422Z,10.70
2022-08-16T10:57:24.520Z,10.93
2022-08-16T10:59:57.793Z,10.18
2022-08-16T11:02:58.460Z,10.70
2022-08-16T11:05:17.846Z,10.43
2022-08-16T11:07:55.309Z,9.50
2022-08-16T11:13:57.350Z,10.00
2022-08-16T11:16:27.640Z,9.20
2022-08-16T11:19:06.303Z,9.32
2022-08-16T11:24:41.453Z,9.32
2022-08-16T11:27:23.364Z,9.00
2022-08-16T11:29:54.771Z,9.00
2022-08-16T11:32:31.985Z,8.32
2022-08-16T11:35:14.819Z,7.57
2022-08-16T11:40:38.916Z,9.93
2022-08-16T11:43:10.242Z,9.40
2022-08-16T11:45:38.812Z,8.52
2022-08-16T11:48:12.390Z,9.02
2022-08-16T11:50:40.815Z,9.73
2022-08-16T11:53:09.628Z,9.55
2022-08-16T11:55:39.223Z,8.43
2022-08-16T11:58:14.382Z,9.13
2022-08-16T12:00:51.148Z,9.05
2022-08-16T12:03:34.868Z,10.98
2022-08-16T12:06:11.231Z,9.40
2022-08-16T12:08:55.658Z,8.90
2022-08-16T12:11:23.731Z,10.45
2022-08-16T12:13:54.790Z,9.95
2022-08-16T12:16:24.553Z,10.85
2022-08-16T12:19:00.945Z,8.35
2022-08-16T12:21:35.984Z,9.32
2022-08-16T12:24:17.109Z,10.60
2022-08-16T12:26:45.638Z,8.70
2022-08-16T12:29:13.870Z,8.57
2022-08-16T12:32:00.750Z,8.70
2022-08-16T12:34:32.607Z,8.65
2022-08-16T12:37:10.376Z,11.00
2022-08-16T12:39:47.056Z,8.35
2022-08-16T12:42:20.868Z,9.40
2022-08-16T12:44:53.159Z,10.18
2022-08-16T12:47:38.634Z,7.72
2022-08-16T12:50:10.450Z,8.13
2022-08-16T12:52:44.451Z,9.63
2022-08-16T12:55:22.140Z,7.70
2022-08-16T12:57:58.739Z,8.50
2022-08-16T13:00:33.570Z,9.00
2022-08-16T13:03:03.450Z,9.18
2022-08-16T13:05:47.714Z,8.80
2022-08-16T13:08:27.454Z,8.40
2022-08-16T13:10:59.853Z,10.48
2022-08-16T13:13:29.600Z,7.72
2022-08-16T13:16:03.679Z,8.68
2022-08-16T13:18:35.762Z,8.45
2022-08-16T13:21:07.073Z,8.68
2022-08-16T13:23:36.898Z,9.73
2022-08-16T13:26:12.854Z,9.85
2022-08-16T13:28:47.767Z,9.88
2022-08-16T13:31:16.920Z,7.95
2022-08-16T13:33:45.408Z,8.30
2022-08-16T13:36:38.751Z,8.32
2022-08-16T13:39:05.318Z,10.23
2022-08-16T13:41:33.494Z,8.40
2022-08-16T13:44:04.172Z,9.13
2022-08-16T13:46:37.857Z,10.63
2022-08-16T13:49:07.003Z,7.80
2022-08-16T13:51:36.401Z,8.27
2022-08-16T13:54:07.841Z,9.82
2022-08-16T13:56:39.712Z,9.43
2022-08-16T13:59:19.623Z,12.52
2022-08-16T14:01:55.096Z,8.20
2022-08-16T14:04:26.356Z,9.32
2022-08-16T14:06:57.190Z,7.70
2022-08-16T14:09:27.065Z,8.60
2022-08-16T14:11:56.037Z,12.43
2022-08-16T14:14:28.598Z,9.35
2022-08-16T14:16:57.525Z,9.00
2022-08-16T14:19:26.525Z,9.35
2022-08-16T14:22:14.908Z,7.55
2022-08-16T14:24:47.131Z,8.15
2022-08-16T14:27:17.121Z,8.52
2022-08-16T14:29:45.727Z,8.27
2022-08-16T14:32:27.034Z,7.70
2022-08-16T14:35:03.182Z,9.00
2022-08-16T14:37:33.749Z,9.13
2022-08-16T14:40:03.354Z,8.23
2022-08-16T14:42:31.888Z,8.65
2022-08-16T14:45:00.741Z,9.77
2022-08-16T14:47:34.390Z,9.57
2022-08-16T14:50:03.223Z,10.00
2022-08-16T14:52:54.766Z,9.38
2022-08-16T14:55:24.252Z,9.30
2022-08-16T14:57:52.853Z,8.68
2022-08-16T15:00:32.804Z,11.23
2022-08-16T15:03:04.515Z,10.50
2022-08-16T15:05:32.949Z,9.00
2022-08-16T15:08:02.462Z,8.23
2022-08-16T15:10:32.265Z,9.55
2022-08-16T15:13:01.457Z,8.52
2022-08-16T15:15:31.354Z,9.20
2022-08-16T15:18:01.610Z,9.02
2022-08-16T15:20:35.322Z,12.38
2022-08-16T15:23:08.477Z,9.40
2022-08-16T15:25:41.455Z,8.68
2022-08-16T15:28:30.654Z,9.35
2022-08-16T15:31:00.843Z,8.23
2022-08-16T15:33:32.484Z,8.68
2022-08-16T15:36:00.823Z,9.35
2022-08-16T15:38:57.694Z,9.77
2022-08-16T15:41:48.904Z,8.73
2022-08-16T15:44:22.214Z,10.20
2022-08-16T15:46:55.492Z,9.57
2022-08-16T15:49:37.231Z,9.68
2022-08-16T15:52:14.965Z,9.60
2022-08-16T15:54:53.546Z,8.85
2022-08-16T15:57:25.173Z,9.63
2022-08-16T15:59:56.450Z,9.65
2022-08-16T16:02:33.524Z,8.93
2022-08-16T16:05:04.505Z,10.15
2022-08-16T16:07:35.338Z,11.48
2022-08-16T16:10:12.966Z,8.75
2022-08-16T16:12:52.964Z,10.02
2022-08-16T16:15:24.457Z,9.50
2022-08-16T16:17:53.140Z,9.80
2022-08-16T16:20:27.268Z,9.30
2022-08-16T16:22:57.815Z,10.73
2022-08-16T16:25:29.264Z,10.82
2022-08-16T16:27:59.492Z,8.50
2022-08-16T16:30:37.875Z,9.48
2022-08-16T16:33:15.726Z,8.30
2022-08-16T16:35:55.458Z,7.22
2022-08-16T16:38:30.950Z,9.77
2022-08-16T16:41:02.217Z,8.32
2022-08-16T16:43:31.925Z,10.32
2022-08-16T16:46:02.176Z,8.98
2022-08-16T16:48:34.833Z,7.55
2022-08-16T16:51:09.546Z,8.20
2022-08-16T16:53:39.505Z,9.70
2022-08-16T16:56:19.673Z,9.45
2022-08-16T16:59:01.733Z,12.30
2022-08-16T17:01:56.880Z,10.63
2022-08-16T17:04:31.786Z,10.38
2022-08-16T17:07:01.752Z,11.27
2022-08-16T17:09:30.942Z,11.35
2022-08-16T17:12:00.593Z,11.75
2022-08-16T17:14:32.777Z,11.77
2022-08-16T17:17:08.695Z,11.93
2022-08-16T17:19:41.022Z,10.65
2022-08-16T17:22:14.676Z,14.50
2022-08-16T17:24:50.221Z,15.38
2022-08-16T17:27:32.597Z,12.98
2022-08-16T17:30:01.827Z,14.50
2022-08-16T17:32:33.575Z,8.85
2022-08-16T17:35:18.489Z,9.88
2022-08-16T17:37:51.588Z,10.68
2022-08-16T17:40:25.517Z,10.32
2022-08-16T17:43:11.344Z,8.98
2022-08-16T17:45:40.319Z,9.43
2022-08-16T17:48:08.715Z,9.38
2022-08-16T17:50:37.106Z,9.27
2022-08-16T17:53:06.342Z,8.20
2022-08-16T17:55:36.844Z,9.75
2022-08-16T17:58:20.124Z,8.07
2022-08-16T18:00:56.075Z,8.60
2022-08-16T18:04:02.865Z,9.10
2022-08-16T18:06:16.842Z,9.98
2022-08-16T18:08:48.859Z,10.43
2022-08-16T18:11:26.023Z,12.90
2022-08-16T18:13:55.803Z,10.07
2022-08-16T18:16:25.767Z,10.00
2022-08-16T18:18:54.145Z,10.85
2022-08-16T18:21:40.061Z,12.68
2022-08-16T18:24:08.686Z,11.10
2022-08-16T18:26:37.392Z,7.50
2022-08-16T18:29:05.645Z,11.07
2022-08-16T18:31:35.598Z,9.50
2022-08-16T18:34:03.779Z,9.45
2022-08-16T18:36:33.459Z,12.23
2022-08-16T18:39:02.053Z,8.68
2022-08-16T18:41:30.694Z,10.55
2022-08-16T18:44:26.773Z,8.80
2022-08-16T18:46:50.733Z,9.15
2022-08-16T18:49:19.846Z,7.83
2022-08-16T18:51:48.294Z,8.52
2022-08-16T18:54:19.317Z,9.50
2022-08-16T18:56:56.207Z,11.80
2022-08-16T18:59:28.304Z,9.35
2022-08-16T19:02:00.274Z,10.05
2022-08-16T19:04:55.963Z,7.97
2022-08-16T19:07:21.217Z,10.73
2022-08-16T19:09:49.259Z,11.38
2022-08-16T19:12:17.259Z,11.10
2022-08-16T19:15:07.897Z,10.27
2022-08-16T19:17:41.399Z,7.88
2022-08-16T19:20:11.347Z,12.55
2022-08-16T19:23:02.029Z,8.85
2022-08-16T19:25:47.593Z,9.93
2022-08-16T19:28:49.687Z,9.45
2022-08-16T19:31:12.324Z,9.52
2022-08-16T19:33:54.098Z,10.23
2022-08-16T19:36:31.194Z,9.05
2022-08-16T19:39:04.880Z,10.50
2022-08-16T19:41:35.377Z,11.48
2022-08-16T19:44:04.407Z,11.13
2022-08-16T19:46:32.430Z,11.10
2022-08-16T19:49:02.087Z,9.73
2022-08-16T19:51:30.337Z,12.32
2022-08-16T19:53:58.378Z,13.38
2022-08-16T19:56:27.010Z,10.05
2022-08-16T19:59:18.135Z,11.23
2022-08-16T20:01:44.947Z,10.75
2022-08-16T20:04:14.689Z,11.55
2022-08-16T20:06:43.176Z,12.18
2022-08-16T20:09:15.625Z,10.68
2022-08-16T20:11:45.437Z,16.05
2022-08-16T20:14:24.028Z,8.77
2022-08-16T20:16:56.194Z,13.60
2022-08-16T20:19:27.531Z,11.05
2022-08-16T20:21:57.377Z,10.43
2022-08-16T20:24:35.325Z,11.23
2022-08-16T20:27:05.038Z,11.02
2022-08-16T20:29:33.053Z,11.35
2022-08-16T20:32:01.168Z,11.52
2022-08-16T20:34:30.611Z,10.48
2022-08-16T20:36:58.704Z,11.90
2022-08-16T20:39:26.861Z,9.75
2022-08-16T20:41:55.175Z,12.65
2022-08-16T20:44:25.393Z,11.07
2022-08-16T20:46:53.682Z,11.20
2022-08-16T20:49:21.704Z,11.70
2022-08-16T20:51:55.839Z,12.40
2022-08-16T20:54:26.018Z,9.48
2022-08-16T20:56:54.151Z,11.85
2022-08-16T20:59:22.196Z,13.10
2022-08-16T21:01:50.892Z,12.60
2022-08-16T21:04:20.285Z,12.93
2022-08-16T21:06:53.426Z,14.30
2022-08-16T21:09:26.408Z,11.75
2022-08-16T21:11:56.035Z,10.32
2022-08-16T21:14:24.175Z,12.40
2022-08-16T21:16:52.518Z,13.60
2022-08-16T21:19:21.053Z,9.68
2022-08-16T21:21:49.678Z,9.82
2022-08-16T21:24:17.777Z,10.85
2022-08-16T21:26:55.106Z,11.27
2022-08-16T21:29:24.957Z,14.05
2022-08-16T21:31:54.220Z,13.90
2022-08-16T21:34:22.259Z,13.27
2022-08-16T21:36:50.250Z,10.32
2022-08-16T21:39:18.287Z,12.82
2022-08-16T21:41:47.698Z,12.38
2022-08-16T21:44:15.756Z,12.98
2022-08-16T21:46:43.777Z,12.35
2022-08-16T21:49:11.978Z,11.60
2022-08-16T21:51:39.947Z,12.73
2022-08-16T21:54:07.989Z,12.63
2022-08-16T21:56:36.102Z,11.63
2022-08-16T21:59:10.984Z,14.38
2022-08-16T22:01:41.546Z,11.25
2022-08-16T22:04:37.948Z,13.32
2022-08-16T22:06:58.816Z,9.18
2022-08-16T22:09:26.907Z,11.60
2022-08-16T22:11:54.943Z,10.93
2022-08-16T22:14:24.398Z,12.27
2022-08-16T22:16:52.571Z,11.52
2022-08-16T22:19:23.967Z,13.30
2022-08-16T22:21:52.350Z,10.85
2022-08-16T22:24:20.404Z,13.10
2022-08-16T22:26:48.404Z,10.95
2022-08-16T22:29:16.425Z,10.57
2022-08-16T22:31:45.828Z,10.73
2022-08-16T22:34:14.821Z,10.95
2022-08-16T22:36:43.305Z,11.10
2022-08-16T22:39:13.787Z,12.38
2022-08-16T22:41:45.620Z,11.27
2022-08-16T22:44:14.045Z,12.07
2022-08-16T22:46:42.530Z,10.23
2022-08-16T22:49:13.128Z,11.15
2022-08-16T22:51:41.536Z,12.38
2022-08-16T22:54:43.949Z,12.02
2022-08-16T22:56:59.025Z,10.13
2022-08-16T22:59:28.700Z,15.20
2022-08-16T23:01:56.783Z,14.63
2022-08-16T23:04:26.528Z,15.00
2022-08-16T23:06:54.670Z,13.77
2022-08-16T23:09:23.663Z,14.65
2022-08-16T23:11:52.013Z,11.80
2022-08-16T23:14:20.165Z,11.48
2022-08-16T23:16:48.278Z,11.43
2022-08-16T23:19:17.889Z,11.45
2022-08-16T23:21:49.482Z,9.40
2022-08-16T23:24:19.498Z,11.05
2022-08-16T23:26:49.320Z,11.38
2022-08-16T23:29:23.900Z,10.93
2022-08-16T23:31:56.254Z,10.27
2022-08-16T23:34:24.639Z,10.80
2022-08-16T23:36:54.105Z,13.18
2022-08-16T23:39:22.192Z,11.77
2022-08-16T23:41:50.216Z,15.30
2022-08-16T23:44:44.095Z,12.27
2022-08-16T23:47:07.449Z,16.90
2022-08-16T23:49:59.216Z,10.38
2022-08-16T23:52:45.285Z,11.93
2022-08-16T23:55:13.098Z,10.45
2022-08-16T23:57:41.117Z,11.32
